sensor_id;sensor_type;location;lat;lon;timestamp;pressure;altitude;pressure_sealevel;temperature;humidity
33185;BME280;19550;42.872;25.494;2024-03-06T00:00:01;96148.84;;;7.59;100.00
33185;BME280;19550;42.872;25.494;2024-03-06T00:02:29;96150.31;;;7.70;100.00
33185;BME280;19550;42.872;25.494;2024-03-06T00:04:56;96146.31;;;7.63;100.00
33185;BME280;19550;42.872;25.494;2024-03-06T00:07:24;96145.91;;;7.69;100.00
33185;BME280;19550;42.872;25.494;2024-03-06T00:09:51;96151.72;;;7.68;100.00
33185;BME280;19550;42.872;25.494;2024-03-06T00:12:18;96145.28;;;7.58;100.00
33185;BME280;19550;42.872;25.494;2024-03-06T00:14:45;96132.94;;;7.56;100.00
33185;BME280;19550;42.872;25.494;2024-03-06T00:17:12;96149.19;;;7.57;100.00
33185;BME280;19550;42.872;25.494;2024-03-06T00:19:39;96141.22;;;7.56;100.00
33185;BME280;19550;42.872;25.494;2024-03-06T00:22:05;96147.56;;;7.56;100.00
33185;BME280;19550;42.872;25.494;2024-03-06T00:24:34;96146.50;;;7.80;100.00
33185;BME280;19550;42.872;25.494;2024-03-06T00:27:00;96145.69;;;7.66;100.00
33185;BME280;19550;42.872;25.494;2024-03-06T00:29:30;96143.31;;;7.73;100.00
33185;BME280;19550;42.872;25.494;2024-03-06T00:31:57;96147.03;;;7.68;100.00
33185;BME280;19550;42.872;25.494;2024-03-06T00:34:24;96148.38;;;7.57;100.00
33185;BME280;19550;42.872;25.494;2024-03-06T00:36:52;96151.84;;;7.63;100.00
33185;BME280;19550;42.872;25.494;2024-03-06T00:39:19;96146.09;;;7.59;100.00
33185;BME280;19550;42.872;25.494;2024-03-06T00:41:48;96146.72;;;7.56;100.00
33185;BME280;19550;42.872;25.494;2024-03-06T00:44:15;96150.22;;;7.48;100.00
33185;BME280;19550;42.872;25.494;2024-03-06T00:46:42;96144.16;;;7.46;100.00
33185;BME280;19550;42.872;25.494;2024-03-06T00:49:08;96152.84;;;7.39;100.00
33185;BME280;19550;42.872;25.494;2024-03-06T00:51:35;96154.78;;;7.39;100.00
33185;BME280;19550;42.872;25.494;2024-03-06T00:54:02;96152.03;;;7.39;100.00
33185;BME280;19550;42.872;25.494;2024-03-06T00:56:30;96159.09;;;7.31;100.00
33185;BME280;19550;42.872;25.494;2024-03-06T00:58:58;96156.44;;;7.40;100.00
33185;BME280;19550;42.872;25.494;2024-03-06T01:01:25;96156.31;;;7.45;100.00
33185;BME280;19550;42.872;25.494;2024-03-06T01:03:53;96161.41;;;7.51;100.00
33185;BME280;19550;42.872;25.494;2024-03-06T01:06:20;96165.94;;;7.47;100.00
33185;BME280;19550;42.872;25.494;2024-03-06T01:08:47;96162.47;;;7.55;100.00
33185;BME280;19550;42.872;25.494;2024-03-06T01:11:14;96161.84;;;7.45;100.00
33185;BME280;19550;42.872;25.494;2024-03-06T01:13:41;96159.81;;;7.50;100.00
33185;BME280;19550;42.872;25.494;2024-03-06T01:16:09;96158.19;;;7.49;100.00
33185;BME280;19550;42.872;25.494;2024-03-06T01:18:36;96158.66;;;7.51;100.00
33185;BME280;19550;42.872;25.494;2024-03-06T01:21:03;96159.00;;;7.50;100.00
33185;BME280;19550;42.872;25.494;2024-03-06T01:23:30;96170.22;;;7.53;100.00
33185;BME280;19550;42.872;25.494;2024-03-06T01:25:56;96165.81;;;7.52;100.00
33185;BME280;19550;42.872;25.494;2024-03-06T01:28:23;96165.53;;;7.54;100.00
33185;BME280;19550;42.872;25.494;2024-03-06T01:30:50;96160.22;;;7.57;100.00
33185;BME280;19550;42.872;25.494;2024-03-06T01:33:18;96159.50;;;7.52;100.00
33185;BME280;19550;42.872;25.494;2024-03-06T01:35:45;96161.66;;;7.41;100.00
33185;BME280;19550;42.872;25.494;2024-03-06T01:38:12;96164.09;;;7.43;100.00
33185;BME280;19550;42.872;25.494;2024-03-06T01:40:43;96160.41;;;7.47;100.00
33185;BME280;19550;42.872;25.494;2024-03-06T01:43:18;96166.56;;;7.44;100.00
33185;BME280;19550;42.872;25.494;2024-03-06T01:45:45;96162.34;;;7.47;100.00
33185;BME280;19550;42.872;25.494;2024-03-06T01:48:14;96170.31;;;7.48;100.00
33185;BME280;19550;42.872;25.494;2024-03-06T01:50:42;96166.56;;;7.44;100.00
33185;BME280;19550;42.872;25.494;2024-03-06T01:53:09;96164.81;;;7.48;100.00
33185;BME280;19550;42.872;25.494;2024-03-06T01:55:37;96170.03;;;7.50;100.00
33185;BME280;19550;42.872;25.494;2024-03-06T01:58:04;96174.72;;;7.49;100.00
33185;BME280;19550;42.872;25.494;2024-03-06T02:00:31;96167.06;;;7.46;100.00
33185;BME280;19550;42.872;25.494;2024-03-06T02:02:59;96180.66;;;7.56;100.00
33185;BME280;19550;42.872;25.494;2024-03-06T02:05:27;96176.34;;;7.64;100.00
33185;BME280;19550;42.872;25.494;2024-03-06T02:07:57;96173.69;;;7.59;100.00
33185;BME280;19550;42.872;25.494;2024-03-06T02:10:24;96176.13;;;7.61;100.00
33185;BME280;19550;42.872;25.494;2024-03-06T02:12:51;96182.06;;;7.68;100.00
33185;BME280;19550;42.872;25.494;2024-03-06T02:15:19;96182.78;;;7.59;100.00
33185;BME280;19550;42.872;25.494;2024-03-06T02:17:45;96175.22;;;7.51;100.00
33185;BME280;19550;42.872;25.494;2024-03-06T02:20:12;96176.25;;;7.55;100.00
33185;BME280;19550;42.872;25.494;2024-03-06T02:22:41;96182.59;;;7.56;100.00
33185;BME280;19550;42.872;25.494;2024-03-06T02:25:08;96173.50;;;7.55;100.00
33185;BME280;19550;42.872;25.494;2024-03-06T02:27:34;96169.50;;;7.48;100.00
33185;BME280;19550;42.872;25.494;2024-03-06T02:30:03;96184.41;;;7.61;100.00
33185;BME280;19550;42.872;25.494;2024-03-06T02:32:30;96186.56;;;7.64;100.00
33185;BME280;19550;42.872;25.494;2024-03-06T02:34:57;96185.53;;;7.73;100.00
33185;BME280;19550;42.872;25.494;2024-03-06T02:37:23;96188.59;;;7.72;100.00
33185;BME280;19550;42.872;25.494;2024-03-06T02:39:52;96178.59;;;7.62;100.00
33185;BME280;19550;42.872;25.494;2024-03-06T02:42:19;96193.91;;;7.68;100.00
33185;BME280;19550;42.872;25.494;2024-03-06T02:44:46;96192.56;;;7.66;100.00
33185;BME280;19550;42.872;25.494;2024-03-06T02:47:12;96204.84;;;7.59;100.00
33185;BME280;19550;42.872;25.494;2024-03-06T02:49:39;96201.69;;;7.66;100.00
33185;BME280;19550;42.872;25.494;2024-03-06T02:52:06;96202.09;;;7.59;100.00
33185;BME280;19550;42.872;25.494;2024-03-06T02:54:33;96196.56;;;7.59;100.00
33185;BME280;19550;42.872;25.494;2024-03-06T02:57:01;96204.72;;;7.65;100.00
33185;BME280;19550;42.872;25.494;2024-03-06T02:59:28;96203.94;;;7.64;100.00
33185;BME280;19550;42.872;25.494;2024-03-06T03:01:55;96202.59;;;7.62;100.00
33185;BME280;19550;42.872;25.494;2024-03-06T03:04:22;96210.06;;;7.61;100.00
33185;BME280;19550;42.872;25.494;2024-03-06T03:06:48;96207.72;;;7.54;100.00
33185;BME280;19550;42.872;25.494;2024-03-06T03:09:16;96209.25;;;7.61;100.00
33185;BME280;19550;42.872;25.494;2024-03-06T03:11:43;96205.38;;;7.62;100.00
33185;BME280;19550;42.872;25.494;2024-03-06T03:14:11;96204.03;;;7.59;100.00
33185;BME280;19550;42.872;25.494;2024-03-06T03:16:38;96203.59;;;7.52;100.00
33185;BME280;19550;42.872;25.494;2024-03-06T03:19:07;96208.41;;;7.46;100.00
33185;BME280;19550;42.872;25.494;2024-03-06T03:21:34;96207.50;;;7.51;100.00
33185;BME280;19550;42.872;25.494;2024-03-06T03:24:00;96201.19;;;7.50;100.00
33185;BME280;19550;42.872;25.494;2024-03-06T03:26:28;96208.31;;;7.38;100.00
33185;BME280;19550;42.872;25.494;2024-03-06T03:28:56;96208.81;;;7.40;100.00
33185;BME280;19550;42.872;25.494;2024-03-06T03:31:24;96206.69;;;7.37;100.00
33185;BME280;19550;42.872;25.494;2024-03-06T03:33:51;96216.59;;;7.38;100.00
33185;BME280;19550;42.872;25.494;2024-03-06T03:36:18;96204.13;;;7.40;100.00
33185;BME280;19550;42.872;25.494;2024-03-06T03:38:44;96211.47;;;7.45;100.00
33185;BME280;19550;42.872;25.494;2024-03-06T03:41:12;96213.81;;;7.51;100.00
33185;BME280;19550;42.872;25.494;2024-03-06T03:43:39;96209.47;;;7.50;100.00
33185;BME280;19550;42.872;25.494;2024-03-06T03:46:06;96202.00;;;7.51;100.00
33185;BME280;19550;42.872;25.494;2024-03-06T03:48:35;96203.00;;;7.55;100.00
33185;BME280;19550;42.872;25.494;2024-03-06T03:51:03;96215.88;;;7.59;100.00
33185;BME280;19550;42.872;25.494;2024-03-06T03:53:33;96226.41;;;7.57;100.00
33185;BME280;19550;42.872;25.494;2024-03-06T03:56:00;96224.16;;;7.59;100.00
33185;BME280;19550;42.872;25.494;2024-03-06T03:58:27;96232.72;;;7.58;100.00
33185;BME280;19550;42.872;25.494;2024-03-06T04:00:54;96232.22;;;7.56;100.00
33185;BME280;19550;42.872;25.494;2024-03-06T04:03:23;96234.88;;;7.61;100.00
33185;BME280;19550;42.872;25.494;2024-03-06T04:05:51;96231.59;;;7.59;100.00
33185;BME280;19550;42.872;25.494;2024-03-06T04:08:18;96229.78;;;7.54;100.00
33185;BME280;19550;42.872;25.494;2024-03-06T04:10:45;96236.94;;;7.55;100.00
33185;BME280;19550;42.872;25.494;2024-03-06T04:13:12;96235.88;;;7.51;100.00
33185;BME280;19550;42.872;25.494;2024-03-06T04:15:39;96238.03;;;7.54;100.00
33185;BME280;19550;42.872;25.494;2024-03-06T04:18:06;96232.34;;;7.51;100.00
33185;BME280;19550;42.872;25.494;2024-03-06T04:20:32;96237.03;;;7.50;100.00
33185;BME280;19550;42.872;25.494;2024-03-06T04:23:01;96237.50;;;7.39;100.00
33185;BME280;19550;42.872;25.494;2024-03-06T04:25:27;96245.16;;;7.28;100.00
33185;BME280;19550;42.872;25.494;2024-03-06T04:27:54;96242.00;;;7.35;100.00
33185;BME280;19550;42.872;25.494;2024-03-06T04:30:21;96248.88;;;7.37;100.00
33185;BME280;19550;42.872;25.494;2024-03-06T04:32:48;96245.59;;;7.35;100.00
33185;BME280;19550;42.872;25.494;2024-03-06T04:35:15;96247.22;;;7.36;100.00
33185;BME280;19550;42.872;25.494;2024-03-06T04:37:42;96242.72;;;7.40;100.00
33185;BME280;19550;42.872;25.494;2024-03-06T04:40:11;96250.00;;;7.50;100.00
33185;BME280;19550;42.872;25.494;2024-03-06T04:42:40;96248.97;;;7.59;100.00
33185;BME280;19550;42.872;25.494;2024-03-06T04:45:10;96246.19;;;7.46;100.00
33185;BME280;19550;42.872;25.494;2024-03-06T04:47:38;96232.00;;;7.39;100.00
33185;BME280;19550;42.872;25.494;2024-03-06T04:50:08;96252.84;;;7.45;100.00
33185;BME280;19550;42.872;25.494;2024-03-06T04:52:36;96251.81;;;7.41;100.00
33185;BME280;19550;42.872;25.494;2024-03-06T04:55:04;96254.38;;;7.37;100.00
33185;BME280;19550;42.872;25.494;2024-03-06T04:57:32;96253.66;;;7.45;100.00
33185;BME280;19550;42.872;25.494;2024-03-06T04:59:59;96261.19;;;7.40;100.00
33185;BME280;19550;42.872;25.494;2024-03-06T05:02:29;96259.50;;;7.44;100.00
33185;BME280;19550;42.872;25.494;2024-03-06T05:04:56;96264.09;;;7.48;100.00
33185;BME280;19550;42.872;25.494;2024-03-06T05:07:23;96265.44;;;7.51;100.00
33185;BME280;19550;42.872;25.494;2024-03-06T05:09:50;96263.78;;;7.50;100.00
33185;BME280;19550;42.872;25.494;2024-03-06T05:12:16;96270.13;;;7.50;100.00
33185;BME280;19550;42.872;25.494;2024-03-06T05:14:45;96263.97;;;7.40;100.00
33185;BME280;19550;42.872;25.494;2024-03-06T05:17:11;96273.56;;;7.42;100.00
33185;BME280;19550;42.872;25.494;2024-03-06T05:19:38;96272.94;;;7.45;100.00
33185;BME280;19550;42.872;25.494;2024-03-06T05:22:05;96273.47;;;7.47;100.00
33185;BME280;19550;42.872;25.494;2024-03-06T05:24:32;96275.22;;;7.43;100.00
33185;BME280;19550;42.872;25.494;2024-03-06T05:26:59;96280.72;;;7.43;100.00
33185;BME280;19550;42.872;25.494;2024-03-06T05:29:27;96288.09;;;7.48;100.00
33185;BME280;19550;42.872;25.494;2024-03-06T05:31:55;96290.03;;;7.47;100.00
33185;BME280;19550;42.872;25.494;2024-03-06T05:34:22;96289.31;;;7.55;100.00
33185;BME280;19550;42.872;25.494;2024-03-06T05:36:49;96293.19;;;7.54;100.00
33185;BME280;19550;42.872;25.494;2024-03-06T05:39:16;96282.16;;;7.54;100.00
33185;BME280;19550;42.872;25.494;2024-03-06T05:41:43;96294.84;;;7.55;100.00
33185;BME280;19550;42.872;25.494;2024-03-06T05:44:10;96292.34;;;7.40;100.00
33185;BME280;19550;42.872;25.494;2024-03-06T05:46:37;96307.69;;;7.46;100.00
33185;BME280;19550;42.872;25.494;2024-03-06T05:49:05;96307.78;;;7.41;100.00
33185;BME280;19550;42.872;25.494;2024-03-06T05:51:32;96306.66;;;7.42;100.00
33185;BME280;19550;42.872;25.494;2024-03-06T05:53:59;96313.19;;;7.46;100.00
33185;BME280;19550;42.872;25.494;2024-03-06T05:56:26;96318.03;;;7.54;100.00
33185;BME280;19550;42.872;25.494;2024-03-06T05:58:53;96304.09;;;7.46;100.00
33185;BME280;19550;42.872;25.494;2024-03-06T06:01:20;96318.84;;;7.55;100.00
33185;BME280;19550;42.872;25.494;2024-03-06T06:03:47;96318.97;;;7.64;100.00
33185;BME280;19550;42.872;25.494;2024-03-06T06:06:16;96318.88;;;7.69;100.00
33185;BME280;19550;42.872;25.494;2024-03-06T06:08:44;96322.66;;;7.73;100.00
33185;BME280;19550;42.872;25.494;2024-03-06T06:11:11;96320.59;;;7.65;100.00
33185;BME280;19550;42.872;25.494;2024-03-06T06:13:38;96325.69;;;7.71;100.00
33185;BME280;19550;42.872;25.494;2024-03-06T06:16:06;96309.09;;;7.90;100.00
33185;BME280;19550;42.872;25.494;2024-03-06T06:18:33;96331.34;;;7.93;100.00
33185;BME280;19550;42.872;25.494;2024-03-06T06:20:59;96327.78;;;7.93;100.00
33185;BME280;19550;42.872;25.494;2024-03-06T06:23:28;96324.00;;;7.89;100.00
33185;BME280;19550;42.872;25.494;2024-03-06T06:25:54;96324.13;;;7.84;100.00
33185;BME280;19550;42.872;25.494;2024-03-06T06:28:21;96330.22;;;7.81;100.00
33185;BME280;19550;42.872;25.494;2024-03-06T06:30:49;96328.00;;;7.83;100.00
33185;BME280;19550;42.872;25.494;2024-03-06T06:33:17;96329.91;;;7.69;100.00
33185;BME280;19550;42.872;25.494;2024-03-06T06:35:44;96324.38;;;7.69;100.00
33185;BME280;19550;42.872;25.494;2024-03-06T06:38:11;96330.84;;;7.78;100.00
33185;BME280;19550;42.872;25.494;2024-03-06T06:40:39;96330.44;;;7.71;100.00
33185;BME280;19550;42.872;25.494;2024-03-06T06:43:06;96327.44;;;7.67;100.00
33185;BME280;19550;42.872;25.494;2024-03-06T06:45:33;96315.41;;;7.63;100.00
33185;BME280;19550;42.872;25.494;2024-03-06T06:47:59;96331.03;;;7.68;100.00
33185;BME280;19550;42.872;25.494;2024-03-06T06:50:26;96329.81;;;7.74;100.00
33185;BME280;19550;42.872;25.494;2024-03-06T06:52:54;96338.38;;;7.72;100.00
33185;BME280;19550;42.872;25.494;2024-03-06T06:55:21;96333.38;;;7.74;100.00
33185;BME280;19550;42.872;25.494;2024-03-06T06:57:53;96335.22;;;7.79;100.00
33185;BME280;19550;42.872;25.494;2024-03-06T07:00:21;96338.81;;;7.93;100.00
33185;BME280;19550;42.872;25.494;2024-03-06T07:02:48;96344.84;;;7.95;100.00
33185;BME280;19550;42.872;25.494;2024-03-06T07:05:16;96345.81;;;8.04;100.00
33185;BME280;19550;42.872;25.494;2024-03-06T07:07:43;96338.72;;;7.98;100.00
33185;BME280;19550;42.872;25.494;2024-03-06T07:10:12;96355.50;;;8.02;100.00
33185;BME280;19550;42.872;25.494;2024-03-06T07:12:39;96356.91;;;7.99;100.00
33185;BME280;19550;42.872;25.494;2024-03-06T07:15:08;96354.47;;;8.11;100.00
33185;BME280;19550;42.872;25.494;2024-03-06T07:17:35;96351.69;;;8.11;100.00
33185;BME280;19550;42.872;25.494;2024-03-06T07:20:02;96356.22;;;8.21;100.00
33185;BME280;19550;42.872;25.494;2024-03-06T07:22:30;96358.50;;;8.32;100.00
33185;BME280;19550;42.872;25.494;2024-03-06T07:24:59;96356.63;;;8.28;100.00
33185;BME280;19550;42.872;25.494;2024-03-06T07:27:26;96359.09;;;8.29;100.00
33185;BME280;19550;42.872;25.494;2024-03-06T07:29:53;96354.16;;;8.26;100.00
33185;BME280;19550;42.872;25.494;2024-03-06T07:32:21;96357.56;;;8.23;100.00
33185;BME280;19550;42.872;25.494;2024-03-06T07:34:48;96359.69;;;8.26;100.00
33185;BME280;19550;42.872;25.494;2024-03-06T07:37:15;96363.09;;;8.23;100.00
33185;BME280;19550;42.872;25.494;2024-03-06T07:39:42;96360.41;;;8.18;100.00
33185;BME280;19550;42.872;25.494;2024-03-06T07:42:09;96353.56;;;8.29;100.00
33185;BME280;19550;42.872;25.494;2024-03-06T07:44:36;96358.91;;;8.40;100.00
33185;BME280;19550;42.872;25.494;2024-03-06T07:47:03;96359.19;;;8.38;100.00
33185;BME280;19550;42.872;25.494;2024-03-06T07:49:31;96357.59;;;8.37;100.00
33185;BME280;19550;42.872;25.494;2024-03-06T07:51:58;96354.19;;;8.40;100.00
33185;BME280;19550;42.872;25.494;2024-03-06T07:54:25;96355.25;;;8.44;100.00
33185;BME280;19550;42.872;25.494;2024-03-06T07:56:52;96359.31;;;8.47;100.00
33185;BME280;19550;42.872;25.494;2024-03-06T07:59:21;96359.19;;;8.52;100.00
33185;BME280;19550;42.872;25.494;2024-03-06T08:01:48;96358.41;;;8.38;100.00
33185;BME280;19550;42.872;25.494;2024-03-06T08:04:14;96359.84;;;8.35;100.00
33185;BME280;19550;42.872;25.494;2024-03-06T08:06:43;96366.47;;;8.34;100.00
33185;BME280;19550;42.872;25.494;2024-03-06T08:09:11;96366.69;;;8.38;100.00
33185;BME280;19550;42.872;25.494;2024-03-06T08:11:38;96377.09;;;8.27;100.00
33185;BME280;19550;42.872;25.494;2024-03-06T08:14:06;96375.66;;;8.29;100.00
33185;BME280;19550;42.872;25.494;2024-03-06T08:16:32;96379.03;;;8.26;100.00
33185;BME280;19550;42.872;25.494;2024-03-06T08:18:59;96386.41;;;8.17;100.00
33185;BME280;19550;42.872;25.494;2024-03-06T08:21:25;96382.91;;;8.25;100.00
33185;BME280;19550;42.872;25.494;2024-03-06T08:23:53;96383.34;;;8.32;100.00
33185;BME280;19550;42.872;25.494;2024-03-06T08:26:20;96381.41;;;8.47;100.00
33185;BME280;19550;42.872;25.494;2024-03-06T08:28:47;96386.00;;;8.51;100.00
33185;BME280;19550;42.872;25.494;2024-03-06T08:31:14;96388.88;;;8.60;100.00
33185;BME280;19550;42.872;25.494;2024-03-06T08:33:41;96389.50;;;8.57;100.00
33185;BME280;19550;42.872;25.494;2024-03-06T08:36:08;96394.28;;;8.65;100.00
33185;BME280;19550;42.872;25.494;2024-03-06T08:38:35;96390.69;;;8.64;100.00
33185;BME280;19550;42.872;25.494;2024-03-06T08:41:03;96390.91;;;8.68;100.00
33185;BME280;19550;42.872;25.494;2024-03-06T08:43:30;96395.81;;;8.71;100.00
33185;BME280;19550;42.872;25.494;2024-03-06T08:45:57;96393.69;;;8.68;100.00
33185;BME280;19550;42.872;25.494;2024-03-06T08:48:24;96389.66;;;8.74;100.00
33185;BME280;19550;42.872;25.494;2024-03-06T08:50:51;96390.06;;;8.81;100.00
33185;BME280;19550;42.872;25.494;2024-03-06T08:53:18;96397.97;;;8.74;100.00
33185;BME280;19550;42.872;25.494;2024-03-06T08:55:44;96391.91;;;8.86;100.00
33185;BME280;19550;42.872;25.494;2024-03-06T08:58:13;96392.59;;;8.91;100.00
33185;BME280;19550;42.872;25.494;2024-03-06T09:00:40;96392.19;;;8.98;100.00
33185;BME280;19550;42.872;25.494;2024-03-06T09:03:07;96404.38;;;8.97;100.00
33185;BME280;19550;42.872;25.494;2024-03-06T09:05:34;96404.28;;;8.88;100.00
33185;BME280;19550;42.872;25.494;2024-03-06T09:08:00;96406.94;;;8.93;100.00
33185;BME280;19550;42.872;25.494;2024-03-06T09:10:28;96407.53;;;9.04;100.00
33185;BME280;19550;42.872;25.494;2024-03-06T09:12:57;96409.97;;;9.05;100.00
33185;BME280;19550;42.872;25.494;2024-03-06T09:15:25;96401.94;;;8.95;100.00
33185;BME280;19550;42.872;25.494;2024-03-06T09:17:52;96406.31;;;8.96;100.00
33185;BME280;19550;42.872;25.494;2024-03-06T09:20:19;96405.28;;;9.06;100.00
33185;BME280;19550;42.872;25.494;2024-03-06T09:22:45;96407.44;;;8.95;100.00
33185;BME280;19550;42.872;25.494;2024-03-06T09:25:12;96400.97;;;9.00;100.00
33185;BME280;19550;42.872;25.494;2024-03-06T09:27:41;96403.88;;;8.95;100.00
33185;BME280;19550;42.872;25.494;2024-03-06T09:30:09;96409.94;;;8.83;100.00
33185;BME280;19550;42.872;25.494;2024-03-06T09:32:37;96404.81;;;8.76;100.00
33185;BME280;19550;42.872;25.494;2024-03-06T09:35:06;96407.91;;;8.75;100.00
33185;BME280;19550;42.872;25.494;2024-03-06T09:37:33;96404.31;;;8.74;100.00
33185;BME280;19550;42.872;25.494;2024-03-06T09:40:00;96406.13;;;8.79;100.00
33185;BME280;19550;42.872;25.494;2024-03-06T09:42:28;96407.50;;;8.68;100.00
33185;BME280;19550;42.872;25.494;2024-03-06T09:44:55;96406.84;;;8.71;100.00
33185;BME280;19550;42.872;25.494;2024-03-06T09:47:22;96409.13;;;8.69;100.00
33185;BME280;19550;42.872;25.494;2024-03-06T09:49:52;96411.59;;;8.70;100.00
33185;BME280;19550;42.872;25.494;2024-03-06T09:52:20;96401.75;;;8.64;100.00
33185;BME280;19550;42.872;25.494;2024-03-06T09:54:47;96409.13;;;8.69;100.00
33185;BME280;19550;42.872;25.494;2024-03-06T09:57:14;96410.78;;;8.70;100.00
33185;BME280;19550;42.872;25.494;2024-03-06T09:59:42;96407.69;;;8.71;100.00
33185;BME280;19550;42.872;25.494;2024-03-06T10:02:18;96405.66;;;8.77;100.00
33185;BME280;19550;42.872;25.494;2024-03-06T10:04:45;96410.25;;;8.68;100.00
33185;BME280;19550;42.872;25.494;2024-03-06T10:07:14;96402.88;;;8.77;100.00
33185;BME280;19550;42.872;25.494;2024-03-06T10:09:46;96406.56;;;8.72;100.00
33185;BME280;19550;42.872;25.494;2024-03-06T10:12:15;96410.75;;;8.84;100.00
33185;BME280;19550;42.872;25.494;2024-03-06T10:14:49;96407.97;;;8.97;100.00
33185;BME280;19550;42.872;25.494;2024-03-06T10:17:19;96404.88;;;8.99;100.00
33185;BME280;19550;42.872;25.494;2024-03-06T10:19:48;96406.41;;;8.91;100.00
33185;BME280;19550;42.872;25.494;2024-03-06T10:22:18;96411.66;;;8.93;100.00
33185;BME280;19550;42.872;25.494;2024-03-06T10:24:45;96400.72;;;8.88;100.00
33185;BME280;19550;42.872;25.494;2024-03-06T10:27:14;96410.09;;;9.00;100.00
33185;BME280;19550;42.872;25.494;2024-03-06T10:29:42;96405.50;;;8.96;100.00
33185;BME280;19550;42.872;25.494;2024-03-06T10:32:09;96401.28;;;8.98;100.00
33185;BME280;19550;42.872;25.494;2024-03-06T10:34:37;96402.63;;;9.01;100.00
33185;BME280;19550;42.872;25.494;2024-03-06T10:37:04;96402.94;;;8.99;100.00
33185;BME280;19550;42.872;25.494;2024-03-06T10:39:33;96400.47;;;8.98;100.00
33185;BME280;19550;42.872;25.494;2024-03-06T10:42:02;96402.81;;;9.04;100.00
33185;BME280;19550;42.872;25.494;2024-03-06T10:44:32;96392.16;;;9.11;100.00
33185;BME280;19550;42.872;25.494;2024-03-06T10:47:03;96397.06;;;9.14;100.00
33185;BME280;19550;42.872;25.494;2024-03-06T10:49:31;96396.06;;;9.10;100.00
33185;BME280;19550;42.872;25.494;2024-03-06T10:52:00;96398.75;;;9.02;100.00
33185;BME280;19550;42.872;25.494;2024-03-06T10:54:28;96396.66;;;9.07;100.00
33185;BME280;19550;42.872;25.494;2024-03-06T10:56:57;96393.06;;;9.21;100.00
33185;BME280;19550;42.872;25.494;2024-03-06T10:59:29;96377.06;;;9.17;100.00
33185;BME280;19550;42.872;25.494;2024-03-06T11:01:57;96393.56;;;9.23;100.00
33185;BME280;19550;42.872;25.494;2024-03-06T11:04:26;96387.38;;;9.26;100.00
33185;BME280;19550;42.872;25.494;2024-03-06T11:06:54;96394.44;;;9.32;100.00
33185;BME280;19550;42.872;25.494;2024-03-06T11:09:21;96388.59;;;9.33;100.00
33185;BME280;19550;42.872;25.494;2024-03-06T11:11:48;96383.72;;;9.30;100.00
33185;BME280;19550;42.872;25.494;2024-03-06T11:14:18;96389.41;;;9.34;100.00
33185;BME280;19550;42.872;25.494;2024-03-06T11:16:58;96390.25;;;9.34;100.00
33185;BME280;19550;42.872;25.494;2024-03-06T11:19:26;96385.69;;;9.38;100.00
33185;BME280;19550;42.872;25.494;2024-03-06T11:21:53;96386.03;;;9.37;100.00
33185;BME280;19550;42.872;25.494;2024-03-06T11:24:21;96380.75;;;9.49;100.00
33185;BME280;19550;42.872;25.494;2024-03-06T11:26:50;96383.41;;;9.54;100.00
33185;BME280;19550;42.872;25.494;2024-03-06T11:29:19;96379.66;;;9.58;100.00
33185;BME280;19550;42.872;25.494;2024-03-06T11:32:06;96375.47;;;9.61;100.00
33185;BME280;19550;42.872;25.494;2024-03-06T11:34:35;96376.22;;;9.75;100.00
33185;BME280;19550;42.872;25.494;2024-03-06T11:37:06;96371.44;;;9.89;100.00
33185;BME280;19550;42.872;25.494;2024-03-06T11:39:39;96373.69;;;9.87;100.00
33185;BME280;19550;42.872;25.494;2024-03-06T11:42:06;96370.78;;;9.92;100.00
33185;BME280;19550;42.872;25.494;2024-03-06T11:44:36;96365.28;;;10.01;100.00
33185;BME280;19550;42.872;25.494;2024-03-06T11:47:05;96374.28;;;10.07;100.00
33185;BME280;19550;42.872;25.494;2024-03-06T11:49:34;96366.84;;;10.16;100.00
33185;BME280;19550;42.872;25.494;2024-03-06T11:52:04;96354.13;;;10.15;100.00
33185;BME280;19550;42.872;25.494;2024-03-06T11:54:33;96363.50;;;10.27;100.00
33185;BME280;19550;42.872;25.494;2024-03-06T11:57:02;96358.94;;;10.31;100.00
33185;BME280;19550;42.872;25.494;2024-03-06T11:59:30;96356.50;;;10.30;100.00
33185;BME280;19550;42.872;25.494;2024-03-06T12:01:59;96362.84;;;10.30;100.00
33185;BME280;19550;42.872;25.494;2024-03-06T12:04:28;96355.34;;;10.22;100.00
33185;BME280;19550;42.872;25.494;2024-03-06T12:06:57;96351.94;;;10.34;100.00
33185;BME280;19550;42.872;25.494;2024-03-06T12:09:24;96356.72;;;10.42;100.00
33185;BME280;19550;42.872;25.494;2024-03-06T12:11:52;96359.53;;;10.59;100.00
33185;BME280;19550;42.872;25.494;2024-03-06T12:14:20;96355.78;;;10.55;100.00
33185;BME280;19550;42.872;25.494;2024-03-06T12:16:54;96367.50;;;10.52;100.00
33185;BME280;19550;42.872;25.494;2024-03-06T12:19:25;96372.88;;;10.49;100.00
33185;BME280;19550;42.872;25.494;2024-03-06T12:21:52;96370.41;;;10.47;100.00
33185;BME280;19550;42.872;25.494;2024-03-06T12:24:19;96372.19;;;10.43;100.00
33185;BME280;19550;42.872;25.494;2024-03-06T12:26:46;96365.38;;;10.49;100.00
33185;BME280;19550;42.872;25.494;2024-03-06T12:29:17;96367.34;;;10.57;100.00
33185;BME280;19550;42.872;25.494;2024-03-06T12:31:45;96360.34;;;10.60;100.00
33185;BME280;19550;42.872;25.494;2024-03-06T12:34:14;96363.16;;;10.77;100.00
33185;BME280;19550;42.872;25.494;2024-03-06T12:36:42;96356.00;;;10.85;100.00
33185;BME280;19550;42.872;25.494;2024-03-06T12:39:09;96364.53;;;10.97;100.00
33185;BME280;19550;42.872;25.494;2024-03-06T12:41:38;96358.28;;;10.91;100.00
33185;BME280;19550;42.872;25.494;2024-03-06T12:44:05;96357.34;;;10.96;100.00
33185;BME280;19550;42.872;25.494;2024-03-06T12:46:33;96359.28;;;11.04;100.00
33185;BME280;19550;42.872;25.494;2024-03-06T12:49:00;96362.41;;;11.02;100.00
33185;BME280;19550;42.872;25.494;2024-03-06T12:51:26;96351.97;;;11.08;100.00